sensor_id;sensor_type;location;lat;lon;timestamp;pressure;altitude;pressure_sealevel;temperature;humidity
15914;BME280;8055;51.930;8.840;2023-06-24T00:02:02;76255.13;;;-145.72;100.00
15914;BME280;8055;51.930;8.840;2023-06-24T00:04:27;76273.75;;;-145.72;100.00
15914;BME280;8055;51.930;8.840;2023-06-24T00:06:52;76259.25;;;-145.72;100.00
15914;BME280;8055;51.930;8.840;2023-06-24T00:09:21;76261.34;;;-145.72;100.00
15914;BME280;8055;51.930;8.840;2023-06-24T00:11:47;76253.06;;;-145.72;100.00
15914;BME280;8055;51.930;8.840;2023-06-24T00:14:12;76255.13;;;-145.72;100.00
15914;BME280;8055;51.930;8.840;2023-06-24T00:16:40;76259.25;;;-145.72;100.00
15914;BME280;8055;51.930;8.840;2023-06-24T00:19:07;76261.34;;;-145.72;100.00
15914;BME280;8055;51.930;8.840;2023-06-24T00:21:33;76263.41;;;-145.72;100.00
15914;BME280;8055;51.930;8.840;2023-06-24T00:23:59;76279.97;;;-145.72;100.00
15914;BME280;8055;51.930;8.840;2023-06-24T00:26:27;76279.97;;;-145.72;100.00
15914;BME280;8055;51.930;8.840;2023-06-24T00:28:52;76286.16;;;-145.72;100.00
15914;BME280;8055;51.930;8.840;2023-06-24T00:31:19;76288.22;;;-145.72;100.00
15914;BME280;8055;51.930;8.840;2023-06-24T00:33:44;76282.03;;;-145.72;100.00
15914;BME280;8055;51.930;8.840;2023-06-24T00:36:10;76296.50;;;-145.72;100.00
15914;BME280;8055;51.930;8.840;2023-06-24T00:38:39;76277.88;;;-145.72;100.00
15914;BME280;8055;51.930;8.840;2023-06-24T00:41:05;76298.59;;;-145.72;100.00
15914;BME280;8055;51.930;8.840;2023-06-24T00:43:31;76290.31;;;-145.72;100.00
15914;BME280;8055;51.930;8.840;2023-06-24T00:45:57;76298.59;;;-145.72;100.00
15914;BME280;8055;51.930;8.840;2023-06-24T00:48:23;76288.22;;;-145.72;100.00
15914;BME280;8055;51.930;8.840;2023-06-24T00:50:48;76277.88;;;-145.72;100.00
15914;BME280;8055;51.930;8.840;2023-06-24T00:53:15;76288.22;;;-145.72;100.00
15914;BME280;8055;51.930;8.840;2023-06-24T00:55:41;76279.97;;;-145.72;100.00
15914;BME280;8055;51.930;8.840;2023-06-24T00:58:06;76298.59;;;-145.72;100.00
15914;BME280;8055;51.930;8.840;2023-06-24T01:00:32;76304.78;;;-145.72;100.00
15914;BME280;8055;51.930;8.840;2023-06-24T01:02:59;76308.94;;;-145.72;100.00
15914;BME280;8055;51.930;8.840;2023-06-24T01:05:26;76308.94;;;-145.72;100.00
15914;BME280;8055;51.930;8.840;2023-06-24T01:07:52;76308.94;;;-145.72;100.00
15914;BME280;8055;51.930;8.840;2023-06-24T01:10:21;76311.00;;;-145.72;100.00
15914;BME280;8055;51.930;8.840;2023-06-24T01:12:47;76308.94;;;-145.72;100.00
15914;BME280;8055;51.930;8.840;2023-06-24T01:15:13;76329.63;;;-145.72;100.00
15914;BME280;8055;51.930;8.840;2023-06-24T01:20:34;76317.22;;;-145.72;100.00
15914;BME280;8055;51.930;8.840;2023-06-24T01:23:24;76319.28;;;-145.72;100.00
15914;BME280;8055;51.930;8.840;2023-06-24T01:26:18;76337.91;;;-145.72;100.00
15914;BME280;8055;51.930;8.840;2023-06-24T01:34:24;76335.84;;;-145.72;100.00
15914;BME280;8055;51.930;8.840;2023-06-24T01:37:04;76329.63;;;-145.72;100.00
15914;BME280;8055;51.930;8.840;2023-06-24T01:39:37;76333.75;;;-145.72;100.00
15914;BME280;8055;51.930;8.840;2023-06-24T01:42:08;76337.91;;;-145.72;100.00
15914;BME280;8055;51.930;8.840;2023-06-24T01:44:35;76342.03;;;-145.72;100.00
15914;BME280;8055;51.930;8.840;2023-06-24T01:47:05;76344.09;;;-145.72;100.00
15914;BME280;8055;51.930;8.840;2023-06-24T01:49:32;76350.31;;;-145.72;100.00
15914;BME280;8055;51.930;8.840;2023-06-24T01:51:59;76346.19;;;-145.72;100.00
15914;BME280;8055;51.930;8.840;2023-06-24T01:54:27;76333.75;;;-145.72;100.00
15914;BME280;8055;51.930;8.840;2023-06-24T01:56:56;76346.19;;;-145.72;100.00
15914;BME280;8055;51.930;8.840;2023-06-24T01:59:22;76337.91;;;-145.72;100.00
15914;BME280;8055;51.930;8.840;2023-06-24T02:01:49;76346.19;;;-145.72;100.00
15914;BME280;8055;51.930;8.840;2023-06-24T02:04:17;76327.56;;;-145.72;100.00
15914;BME280;8055;51.930;8.840;2023-06-24T02:06:44;76327.56;;;-145.72;100.00
15914;BME280;8055;51.930;8.840;2023-06-24T02:09:10;76329.63;;;-145.72;100.00
15914;BME280;8055;51.930;8.840;2023-06-24T02:11:36;76331.69;;;-145.72;100.00
15914;BME280;8055;51.930;8.840;2023-06-24T02:14:04;76325.47;;;-145.72;100.00
15914;BME280;8055;51.930;8.840;2023-06-24T02:16:31;76321.34;;;-145.72;100.00
15914;BME280;8055;51.930;8.840;2023-06-24T02:18:58;76321.34;;;-145.72;100.00
15914;BME280;8055;51.930;8.840;2023-06-24T02:21:24;76321.34;;;-145.72;100.00
15914;BME280;8055;51.930;8.840;2023-06-24T02:23:52;76317.22;;;-145.72;100.00
15914;BME280;8055;51.930;8.840;2023-06-24T02:26:18;76317.22;;;-145.72;100.00
15914;BME280;8055;51.930;8.840;2023-06-24T02:28:44;76319.28;;;-145.72;100.00
15914;BME280;8055;51.930;8.840;2023-06-24T02:31:12;76313.06;;;-145.72;100.00
15914;BME280;8055;51.930;8.840;2023-06-24T02:33:38;76313.06;;;-145.72;100.00
15914;BME280;8055;51.930;8.840;2023-06-24T02:36:03;76306.84;;;-145.72;100.00
15914;BME280;8055;51.930;8.840;2023-06-24T02:38:29;76319.28;;;-145.72;100.00
15914;BME280;8055;51.930;8.840;2023-06-24T02:40:54;76321.34;;;-145.72;100.00
15914;BME280;8055;51.930;8.840;2023-06-24T02:43:21;76319.28;;;-145.72;100.00
15914;BME280;8055;51.930;8.840;2023-06-24T02:45:47;76321.34;;;-145.72;100.00
15914;BME280;8055;51.930;8.840;2023-06-24T02:48:14;76337.91;;;-145.72;100.00
15914;BME280;8055;51.930;8.840;2023-06-24T02:50:41;76337.91;;;-145.72;100.00
15914;BME280;8055;51.930;8.840;2023-06-24T02:53:10;76337.91;;;-145.72;100.00
15914;BME280;8055;51.930;8.840;2023-06-24T02:55:36;76337.91;;;-145.72;100.00
15914;BME280;8055;51.930;8.840;2023-06-24T02:58:02;76346.19;;;-145.72;100.00
15914;BME280;8055;51.930;8.840;2023-06-24T03:00:28;76350.31;;;-145.72;100.00
15914;BME280;8055;51.930;8.840;2023-06-24T03:03:00;76366.88;;;-145.72;100.00
15914;BME280;8055;51.930;8.840;2023-06-24T03:05:26;76379.28;;;-145.72;100.00
15914;BME280;8055;51.930;8.840;2023-06-24T03:07:52;76389.63;;;-145.72;100.00
15914;BME280;8055;51.930;8.840;2023-06-24T03:10:18;76387.56;;;-145.72;100.00
15914;BME280;8055;51.930;8.840;2023-06-24T03:12:43;76395.84;;;-145.72;100.00
15914;BME280;8055;51.930;8.840;2023-06-24T03:15:09;76389.63;;;-145.72;100.00
15914;BME280;8055;51.930;8.840;2023-06-24T03:17:34;76387.56;;;-145.72;100.00
15914;BME280;8055;51.930;8.840;2023-06-24T03:20:00;76391.72;;;-145.72;100.00
15914;BME280;8055;51.930;8.840;2023-06-24T03:22:26;76395.84;;;-145.72;100.00
15914;BME280;8055;51.930;8.840;2023-06-24T03:24:51;76391.72;;;-145.72;100.00
15914;BME280;8055;51.930;8.840;2023-06-24T03:27:18;76395.84;;;-145.72;100.00
15914;BME280;8055;51.930;8.840;2023-06-24T03:29:44;76385.50;;;-145.72;100.00
15914;BME280;8055;51.930;8.840;2023-06-24T03:32:09;76387.56;;;-145.72;100.00
15914;BME280;8055;51.930;8.840;2023-06-24T03:34:35;76395.84;;;-145.72;100.00
15914;BME280;8055;51.930;8.840;2023-06-24T03:37:00;76387.56;;;-145.72;100.00
15914;BME280;8055;51.930;8.840;2023-06-24T03:39:26;76408.25;;;-145.72;100.00
15914;BME280;8055;51.930;8.840;2023-06-24T03:41:51;76387.56;;;-145.72;100.00
15914;BME280;8055;51.930;8.840;2023-06-24T03:44:16;76385.50;;;-145.72;100.00
15914;BME280;8055;51.930;8.840;2023-06-24T03:46:42;76385.50;;;-145.72;100.00
15914;BME280;8055;51.930;8.840;2023-06-24T03:49:07;76387.56;;;-145.72;100.00
15914;BME280;8055;51.930;8.840;2023-06-24T03:51:33;76387.56;;;-145.72;100.00
15914;BME280;8055;51.930;8.840;2023-06-24T03:53:59;76385.50;;;-145.72;100.00
15914;BME280;8055;51.930;8.840;2023-06-24T03:56:24;76373.09;;;-145.72;100.00
15914;BME280;8055;51.930;8.840;2023-06-24T03:58:50;76373.09;;;-145.72;100.00
15914;BME280;8055;51.930;8.840;2023-06-24T04:01:15;76358.59;;;-145.72;100.00
15914;BME280;8055;51.930;8.840;2023-06-24T04:03:44;76358.59;;;-145.72;100.00
15914;BME280;8055;51.930;8.840;2023-06-24T04:06:09;76352.38;;;-145.72;100.00
15914;BME280;8055;51.930;8.840;2023-06-24T04:08:35;76344.09;;;-145.72;100.00
15914;BME280;8055;51.930;8.840;2023-06-24T04:11:04;76346.19;;;-145.72;100.00
15914;BME280;8055;51.930;8.840;2023-06-24T04:13:30;76342.03;;;-145.72;100.00
15914;BME280;8055;51.930;8.840;2023-06-24T04:15:55;76331.69;;;-145.72;100.00
15914;BME280;8055;51.930;8.840;2023-06-24T04:18:20;76337.91;;;-145.72;100.00
15914;BME280;8055;51.930;8.840;2023-06-24T04:20:46;76325.47;;;-145.72;100.00
15914;BME280;8055;51.930;8.840;2023-06-24T04:23:12;76315.13;;;-145.72;100.00
15914;BME280;8055;51.930;8.840;2023-06-24T04:25:39;76308.94;;;-145.72;100.00
15914;BME280;8055;51.930;8.840;2023-06-24T04:28:05;76306.84;;;-145.72;100.00
15914;BME280;8055;51.930;8.840;2023-06-24T04:30:31;76296.50;;;-145.72;100.00
15914;BME280;8055;51.930;8.840;2023-06-24T04:32:57;76296.50;;;-145.72;100.00
15914;BME280;8055;51.930;8.840;2023-06-24T04:35:22;76282.03;;;-145.72;100.00
15914;BME280;8055;51.930;8.840;2023-06-24T04:37:48;76271.69;;;-145.72;100.00
15914;BME280;8055;51.930;8.840;2023-06-24T04:40:19;76265.47;;;-145.72;100.00
15914;BME280;8055;51.930;8.840;2023-06-24T04:42:48;76253.06;;;-145.72;100.00
15914;BME280;8055;51.930;8.840;2023-06-24T04:45:13;76246.84;;;-145.72;100.00
15914;BME280;8055;51.930;8.840;2023-06-24T04:47:39;76238.56;;;-145.72;100.00
15914;BME280;8055;51.930;8.840;2023-06-24T04:50:04;76226.16;;;-145.72;100.00
15914;BME280;8055;51.930;8.840;2023-06-24T04:52:30;76222.00;;;-145.72;100.00
15914;BME280;8055;51.930;8.840;2023-06-24T04:54:55;76217.88;;;-145.72;100.00
15914;BME280;8055;51.930;8.840;2023-06-24T04:57:27;76207.53;;;-145.72;100.00
15914;BME280;8055;51.930;8.840;2023-06-24T04:59:52;76201.31;;;-145.72;100.00
15914;BME280;8055;51.930;8.840;2023-06-24T05:02:18;76190.97;;;-145.72;100.00
15914;BME280;8055;51.930;8.840;2023-06-24T05:04:43;76184.75;;;-145.72;100.00
15914;BME280;8055;51.930;8.840;2023-06-24T05:07:08;76170.28;;;-145.72;100.00
15914;BME280;8055;51.930;8.840;2023-06-24T05:09:34;76166.13;;;-145.72;100.00
15914;BME280;8055;51.930;8.840;2023-06-24T05:12:03;76164.06;;;-145.72;100.00
15914;BME280;8055;51.930;8.840;2023-06-24T05:14:29;76153.72;;;-145.72;100.00
15914;BME280;8055;51.930;8.840;2023-06-24T05:16:54;76145.44;;;-145.72;100.00
15914;BME280;8055;51.930;8.840;2023-06-24T05:19:19;76128.88;;;-145.72;100.00
15914;BME280;8055;51.930;8.840;2023-06-24T05:21:45;76122.69;;;-145.72;100.00
15914;BME280;8055;51.930;8.840;2023-06-24T05:24:10;76106.13;;;-145.72;100.00
15914;BME280;8055;51.930;8.840;2023-06-24T05:26:35;76097.84;;;-145.72;100.00
15914;BME280;8055;51.930;8.840;2023-06-24T05:29:01;76085.44;;;-145.72;100.00
15914;BME280;8055;51.930;8.840;2023-06-24T05:31:26;76075.09;;;-145.72;100.00
15914;BME280;8055;51.930;8.840;2023-06-24T05:33:51;76064.72;;;-145.72;100.00
15914;BME280;8055;51.930;8.840;2023-06-24T05:36:17;76048.19;;;-145.72;100.00
15914;BME280;8055;51.930;8.840;2023-06-24T05:38:42;76054.38;;;-145.72;100.00
15914;BME280;8055;51.930;8.840;2023-06-24T05:41:07;76031.63;;;-145.72;100.00
15914;BME280;8055;51.930;8.840;2023-06-24T05:43:33;76027.47;;;-145.72;100.00
15914;BME280;8055;51.930;8.840;2023-06-24T05:45:58;76008.84;;;-145.72;100.00
15914;BME280;8055;51.930;8.840;2023-06-24T05:48:24;75998.50;;;-145.72;100.00
15914;BME280;8055;51.930;8.840;2023-06-24T05:50:49;75981.97;;;-145.72;100.00
15914;BME280;8055;51.930;8.840;2023-06-24T05:53:14;75971.63;;;-145.72;100.00
15914;BME280;8055;51.930;8.840;2023-06-24T05:55:40;75961.25;;;-145.72;100.00
15914;BME280;8055;51.930;8.840;2023-06-24T05:58:05;75955.06;;;-145.72;100.00
15914;BME280;8055;51.930;8.840;2023-06-24T06:00:30;75936.44;;;-145.72;100.00
15914;BME280;8055;51.930;8.840;2023-06-24T06:02:56;75919.88;;;-145.72;100.00
15914;BME280;8055;51.930;8.840;2023-06-24T06:05:21;75909.53;;;-145.72;100.00
15914;BME280;8055;51.930;8.840;2023-06-24T06:07:46;75899.19;;;-145.72;100.00
15914;BME280;8055;51.930;8.840;2023-06-24T06:10:13;75886.78;;;-145.72;100.00
15914;BME280;8055;51.930;8.840;2023-06-24T06:12:42;75872.28;;;-145.72;100.00
15914;BME280;8055;51.930;8.840;2023-06-24T06:15:08;75849.53;;;-145.72;100.00
15914;BME280;8055;51.930;8.840;2023-06-24T06:17:34;75841.25;;;-145.72;100.00
15914;BME280;8055;51.930;8.840;2023-06-24T06:19:59;75837.09;;;-145.72;100.00
15914;BME280;8055;51.930;8.840;2023-06-24T06:22:24;75830.91;;;-145.72;100.00
15914;BME280;8055;51.930;8.840;2023-06-24T06:24:50;75822.63;;;-145.72;100.00
15914;BME280;8055;51.930;8.840;2023-06-24T06:27:15;75814.34;;;-145.72;100.00
15914;BME280;8055;51.930;8.840;2023-06-24T06:29:41;75804.00;;;-145.72;100.00
15914;BME280;8055;51.930;8.840;2023-06-24T06:32:06;75791.59;;;-145.72;100.00
15914;BME280;8055;51.930;8.840;2023-06-24T06:34:32;75789.50;;;-145.72;100.00
15914;BME280;8055;51.930;8.840;2023-06-24T06:36:57;75781.25;;;-145.72;100.00
15914;BME280;8055;51.930;8.840;2023-06-24T06:39:22;75762.63;;;-145.72;100.00
15914;BME280;8055;51.930;8.840;2023-06-24T06:41:48;75748.13;;;-145.72;100.00
15914;BME280;8055;51.930;8.840;2023-06-24T06:44:13;75739.84;;;-145.72;100.00
15914;BME280;8055;51.930;8.840;2023-06-24T06:46:38;75739.84;;;-145.72;100.00
15914;BME280;8055;51.930;8.840;2023-06-24T06:49:04;75719.16;;;-145.72;100.00
15914;BME280;8055;51.930;8.840;2023-06-24T06:51:29;75708.81;;;-145.72;100.00
15914;BME280;8055;51.930;8.840;2023-06-24T06:53:54;75698.47;;;-145.72;100.00
15914;BME280;8055;51.930;8.840;2023-06-24T06:56:22;75688.13;;;-145.72;100.00
15914;BME280;8055;51.930;8.840;2023-06-24T06:58:49;75688.13;;;-145.72;100.00
15914;BME280;8055;51.930;8.840;2023-06-24T07:01:15;75677.78;;;-145.72;100.00
15914;BME280;8055;51.930;8.840;2023-06-24T07:03:40;75655.03;;;-145.72;100.00
15914;BME280;8055;51.930;8.840;2023-06-24T07:06:06;75642.59;;;-145.72;100.00
15914;BME280;8055;51.930;8.840;2023-06-24T07:08:31;75636.41;;;-145.72;100.00
15914;BME280;8055;51.930;8.840;2023-06-24T07:10:56;75617.78;;;-145.72;100.00
15914;BME280;8055;51.930;8.840;2023-06-24T07:13:22;75605.34;;;-145.72;100.00
15914;BME280;8055;51.930;8.840;2023-06-24T07:15:47;75607.44;;;-145.72;100.00
15914;BME280;8055;51.930;8.840;2023-06-24T07:18:13;75597.09;;;-145.72;100.00
15914;BME280;8055;51.930;8.840;2023-06-24T07:20:38;75576.38;;;-145.72;100.00
15914;BME280;8055;51.930;8.840;2023-06-24T07:23:03;75566.03;;;-145.72;100.00
15914;BME280;8055;51.930;8.840;2023-06-24T07:25:30;75551.56;;;-145.72;100.00
15914;BME280;8055;51.930;8.840;2023-06-24T07:27:55;75530.88;;;-145.72;100.00
15914;BME280;8055;51.930;8.840;2023-06-24T07:30:21;75520.53;;;-145.72;95.32
15914;BME280;8055;51.930;8.840;2023-06-24T07:32:46;75497.75;;;-145.72;99.06
15914;BME280;8055;51.930;8.840;2023-06-24T07:35:12;75485.34;;;-145.72;93.06
15914;BME280;8055;51.930;8.840;2023-06-24T07:37:38;75470.88;;;-145.72;99.29
15914;BME280;8055;51.930;8.840;2023-06-24T07:40:05;75481.22;;;-145.72;95.17
15914;BME280;8055;51.930;8.840;2023-06-24T07:42:31;75454.31;;;-145.72;100.00
15914;BME280;8055;51.930;8.840;2023-06-24T07:44:56;75446.03;;;-145.72;87.59
15914;BME280;8055;51.930;8.840;2023-06-24T07:47:22;75419.13;;;-145.72;89.11
15914;BME280;8055;51.930;8.840;2023-06-24T07:49:47;75417.06;;;-145.72;87.49
15914;BME280;8055;51.930;8.840;2023-06-24T07:52:13;75404.66;;;-145.72;84.31
15914;BME280;8055;51.930;8.840;2023-06-24T07:54:38;75402.59;;;-145.72;80.50
15914;BME280;8055;51.930;8.840;2023-06-24T07:57:03;75394.31;;;-145.72;77.61
15914;BME280;8055;51.930;8.840;2023-06-24T07:59:29;75386.03;;;-145.72;83.83
15914;BME280;8055;51.930;8.840;2023-06-24T08:01:54;75377.75;;;-145.72;76.40
15914;BME280;8055;51.930;8.840;2023-06-24T08:04:20;75359.13;;;-145.72;82.88
15914;BME280;8055;51.930;8.840;2023-06-24T08:06:45;75348.78;;;-145.72;81.74
15914;BME280;8055;51.930;8.840;2023-06-24T08:09:11;75340.50;;;-145.72;74.87
15914;BME280;8055;51.930;8.840;2023-06-24T08:11:36;75326.03;;;-145.72;81.04
15914;BME280;8055;51.930;8.840;2023-06-24T08:14:01;75315.69;;;-145.72;81.35
15914;BME280;8055;51.930;8.840;2023-06-24T08:16:27;75301.19;;;-145.72;82.91
15914;BME280;8055;51.930;8.840;2023-06-24T08:18:52;75282.59;;;-145.72;76.83
15914;BME280;8055;51.930;8.840;2023-06-24T08:21:18;75278.44;;;-145.72;71.08
15914;BME280;8055;51.930;8.840;2023-06-24T08:23:44;75278.44;;;-145.72;76.45
15914;BME280;8055;51.930;8.840;2023-06-24T08:29:31;75268.09;;;-145.72;72.07
15914;BME280;8055;51.930;8.840;2023-06-24T08:31:57;75259.81;;;-145.72;69.92
15914;BME280;8055;51.930;8.840;2023-06-24T08:34:22;75245.34;;;-145.72;71.99
15914;BME280;8055;51.930;8.840;2023-06-24T08:36:48;75241.19;;;-145.72;75.23
15914;BME280;8055;51.930;8.840;2023-06-24T08:39:13;75224.66;;;-145.72;77.29
15914;BME280;8055;51.930;8.840;2023-06-24T08:41:38;75210.16;;;-145.72;69.58
15914;BME280;8055;51.930;8.840;2023-06-24T08:44:04;75193.63;;;-145.72;72.22
15914;BME280;8055;51.930;8.840;2023-06-24T08:46:29;75195.69;;;-145.72;69.33
15914;BME280;8055;51.930;8.840;2023-06-24T08:49:07;75187.41;;;-145.72;71.42
15914;BME280;8055;51.930;8.840;2023-06-24T08:51:41;75177.06;;;-145.72;71.57
15914;BME280;8055;51.930;8.840;2023-06-24T08:54:09;75160.50;;;-145.72;65.98
15914;BME280;8055;51.930;8.840;2023-06-24T08:56:36;75160.50;;;-145.72;69.10
15914;BME280;8055;51.930;8.840;2023-06-24T08:59:05;75152.25;;;-145.72;68.48
15914;BME280;8055;51.930;8.840;2023-06-24T09:01:31;75150.16;;;-145.72;64.31
15914;BME280;8055;51.930;8.840;2023-06-24T09:03:56;75139.81;;;-145.72;67.29
15914;BME280;8055;51.930;8.840;2023-06-24T09:06:22;75119.13;;;-145.72;67.33
15914;BME280;8055;51.930;8.840;2023-06-24T09:08:57;75096.38;;;-145.72;69.91
15914;BME280;8055;51.930;8.840;2023-06-24T09:11:26;75081.91;;;-145.72;72.21
15914;BME280;8055;51.930;8.840;2023-06-24T09:13:59;75079.81;;;-145.72;67.48
15914;BME280;8055;51.930;8.840;2023-06-24T09:16:25;75067.41;;;-145.72;69.38
15914;BME280;8055;51.930;8.840;2023-06-24T09:18:51;75055.00;;;-145.72;69.52
15914;BME280;8055;51.930;8.840;2023-06-24T09:21:27;75036.38;;;-145.72;65.61
15914;BME280;8055;51.930;8.840;2023-06-24T09:23:54;75026.03;;;-145.72;67.40
15914;BME280;8055;51.930;8.840;2023-06-24T09:26:27;75015.69;;;-145.72;63.41
15914;BME280;8055;51.930;8.840;2023-06-24T09:28:55;75026.03;;;-145.72;65.21
15914;BME280;8055;51.930;8.840;2023-06-24T09:31:23;75009.50;;;-145.72;62.70
15914;BME280;8055;51.930;8.840;2023-06-24T09:33:48;75005.34;;;-145.72;64.18
15914;BME280;8055;51.930;8.840;2023-06-24T09:36:14;74970.19;;;-145.72;67.68
15914;BME280;8055;51.930;8.840;2023-06-24T09:38:42;74959.84;;;-145.72;64.01
15914;BME280;8055;51.930;8.840;2023-06-24T09:41:09;74955.69;;;-145.72;61.58
15914;BME280;8055;51.930;8.840;2023-06-24T09:43:36;74961.91;;;-145.72;63.05
15914;BME280;8055;51.930;8.840;2023-06-24T09:46:03;74924.66;;;-145.72;65.82
15914;BME280;8055;51.930;8.840;2023-06-24T09:48:28;74945.34;;;-145.72;61.53
15914;BME280;8055;51.930;8.840;2023-06-24T09:51:00;74953.63;;;-145.72;61.15
15914;BME280;8055;51.930;8.840;2023-06-24T09:53:30;74966.03;;;-145.72;60.30
15914;BME280;8055;51.930;8.840;2023-06-24T09:55:56;74926.72;;;-145.72;63.45
15914;BME280;8055;51.930;8.840;2023-06-24T09:58:23;74910.19;;;-145.72;62.82
15914;BME280;8055;51.930;8.840;2023-06-24T10:00:49;74881.22;;;-145.72;62.84
15914;BME280;8055;51.930;8.840;2023-06-24T10:03:16;74870.88;;;-145.72;62.54
15914;BME280;8055;51.930;8.840;2023-06-24T10:05:42;74903.97;;;-145.72;58.76
15914;BME280;8055;51.930;8.840;2023-06-24T10:08:08;74941.22;;;-145.72;59.89
15914;BME280;8055;51.930;8.840;2023-06-24T10:10:35;74978.47;;;-145.72;62.07
15914;BME280;8055;51.930;8.840;2023-06-24T10:13:01;74949.50;;;-145.72;62.16
15914;BME280;8055;51.930;8.840;2023-06-24T10:15:26;74928.81;;;-145.72;61.75
15914;BME280;8055;51.930;8.840;2023-06-24T10:17:52;74928.81;;;-145.72;63.05
15914;BME280;8055;51.930;8.840;2023-06-24T10:20:24;74924.66;;;-145.72;64.33
15914;BME280;8055;51.930;8.840;2023-06-24T10:22:53;74963.97;;;-145.72;59.89
15914;BME280;8055;51.930;8.840;2023-06-24T10:25:18;74970.19;;;-145.72;64.47
15914;BME280;8055;51.930;8.840;2023-06-24T10:27:44;74986.72;;;-145.72;68.26
15914;BME280;8055;51.930;8.840;2023-06-24T10:30:27;74984.66;;;-145.72;65.09
15914;BME280;8055;51.930;8.840;2023-06-24T10:32:54;74988.81;;;-145.72;64.09
15914;BME280;8055;51.930;8.840;2023-06-24T10:35:26;74953.63;;;-145.72;66.80
15914;BME280;8055;51.930;8.840;2023-06-24T10:38:01;74935.00;;;-145.72;63.98
15914;BME280;8055;51.930;8.840;2023-06-24T10:40:37;74957.78;;;-145.72;61.50
15914;BME280;8055;51.930;8.840;2023-06-24T10:45:52;74957.78;;;-145.72;66.41
15914;BME280;8055;51.930;8.840;2023-06-24T10:48:19;74899.84;;;-145.72;64.03
15914;BME280;8055;51.930;8.840;2023-06-24T10:50:48;74885.34;;;-145.72;64.73
15914;BME280;8055;51.930;8.840;2023-06-24T10:53:14;74852.25;;;-145.72;62.91
15914;BME280;8055;51.930;8.840;2023-06-24T10:55:40;74848.13;;;-145.72;63.42
15914;BME280;8055;51.930;8.840;2023-06-24T10:58:09;74858.47;;;-145.72;60.47
15914;BME280;8055;51.930;8.840;2023-06-24T11:00:36;74810.88;;;-145.72;65.03
15914;BME280;8055;51.930;8.840;2023-06-24T11:03:12;74839.84;;;-145.72;60.18
15914;BME280;8055;51.930;8.840;2023-06-24T11:05:42;74854.31;;;-145.72;61.13
15914;BME280;8055;51.930;8.840;2023-06-24T11:08:09;74817.09;;;-145.72;58.98
15914;BME280;8055;51.930;8.840;2023-06-24T11:10:47;74773.66;;;-145.72;62.17
15914;BME280;8055;51.930;8.840;2023-06-24T11:13:13;74800.53;;;-145.72;63.62
15914;BME280;8055;51.930;8.840;2023-06-24T11:15:39;74860.53;;;-145.72;60.11
15914;BME280;8055;51.930;8.840;2023-06-24T11:18:08;74901.91;;;-145.72;60.75
15914;BME280;8055;51.930;8.840;2023-06-24T11:20:36;74932.94;;;-145.72;61.52
15914;BME280;8055;51.930;8.840;2023-06-24T11:23:01;74877.09;;;-145.72;64.58
15914;BME280;8055;51.930;8.840;2023-06-24T11:25:26;74846.06;;;-145.72;60.31
15914;BME280;8055;51.930;8.840;2023-06-24T11:27:52;74798.47;;;-145.72;58.51
15914;BME280;8055;51.930;8.840;2023-06-24T11:30:20;74732.28;;;-145.72;57.49
15914;BME280;8055;51.930;8.840;2023-06-24T11:32:46;74666.06;;;-145.72;58.95
15914;BME280;8055;51.930;8.840;2023-06-24T11:35:13;74661.94;;;-145.72;55.54
15914;BME280;8055;51.930;8.840;2023-06-24T11:37:41;74670.22;;;-145.72;55.90
15914;BME280;8055;51.930;8.840;2023-06-24T11:40:08;74608.16;;;-145.72;57.66
15914;BME280;8055;51.930;8.840;2023-06-24T11:42:39;74579.19;;;-145.72;56.05
15914;BME280;8055;51.930;8.840;2023-06-24T11:45:10;74562.66;;;-145.72;55.19
15914;BME280;8055;51.930;8.840;2023-06-24T11:47:37;74548.16;;;-145.72;52.91
15914;BME280;8055;51.930;8.840;2023-06-24T11:50:04;74504.72;;;-145.72;53.83
15914;BME280;8055;51.930;8.840;2023-06-24T11:52:46;74531.63;;;-145.72;52.48
15914;BME280;8055;51.930;8.840;2023-06-24T11:55:18;74604.00;;;-145.72;54.24
15914;BME280;8055;51.930;8.840;2023-06-24T12:00:15;74581.25;;;-145.72;47.67
15914;BME280;8055;51.930;8.840;2023-06-24T12:02:41;74595.75;;;-145.72;51.59
15914;BME280;8055;51.930;8.840;2023-06-24T12:05:06;74546.09;;;-145.72;51.76
15914;BME280;8055;51.930;8.840;2023-06-24T12:07:32;74504.72;;;-145.72;50.86
15914;BME280;8055;51.930;8.840;2023-06-24T12:09:57;74450.94;;;-145.72;48.47
15914;BME280;8055;51.930;8.840;2023-06-24T12:12:23;74438.53;;;-145.72;47.91
15914;BME280;8055;51.930;8.840;2023-06-24T12:14:48;74529.53;;;-145.72;47.79
15914;BME280;8055;51.930;8.840;2023-06-24T12:17:14;74583.34;;;-145.72;48.92
15914;BME280;8055;51.930;8.840;2023-06-24T12:19:39;74620.56;;;-145.72;50.02
15914;BME280;8055;51.930;8.840;2023-06-24T12:22:05;74639.19;;;-145.72;51.06
15914;BME280;8055;51.930;8.840;2023-06-24T12:24:30;74661.94;;;-145.72;50.67
15914;BME280;8055;51.930;8.840;2023-06-24T12:26:55;74697.09;;;-145.72;53.93
15914;BME280;8055;51.930;8.840;2023-06-24T12:29:21;74715.72;;;-145.72;54.18
15914;BME280;8055;51.930;8.840;2023-06-24T12:31:47;74711.59;;;-145.72;55.59
15914;BME280;8055;51.930;8.840;2023-06-24T12:34:12;74604.00;;;-145.72;53.60
15914;BME280;8055;51.930;8.840;2023-06-24T12:36:37;74533.69;;;-145.72;50.95
15914;BME280;8055;51.930;8.840;2023-06-24T12:39:03;74440.59;;;-145.72;51.90
15914;BME280;8055;51.930;8.840;2023-06-24T12:41:28;74519.19;;;-145.72;50.33
15914;BME280;8055;51.930;8.840;2023-06-24T12:43:53;74467.50;;;-145.72;48.04
15914;BME280;8055;51.930;8.840;2023-06-24T12:46:19;74430.25;;;-145.72;49.17
15914;BME280;8055;51.930;8.840;2023-06-24T12:48:44;74339.25;;;-145.72;50.21
15914;BME280;8055;51.930;8.840;2023-06-24T12:51:09;74328.91;;;-145.72;45.71
15914;BME280;8055;51.930;8.840;2023-06-24T12:53:35;74401.28;;;-145.72;49.06
15914;BME280;8055;51.930;8.840;2023-06-24T12:56:00;74364.06;;;-145.72;47.82
15914;BME280;8055;51.930;8.840;2023-06-24T12:58:25;74359.94;;;-145.72;47.99
15914;BME280;8055;51.930;8.840;2023-06-24T13:00:51;74430.25;;;-145.72;49.79